createdAt,value
2022-09-06T00:00:15.277Z,69.10
2022-09-06T00:02:44.563Z,68.90
2022-09-06T00:05:12.611Z,68.80
2022-09-06T00:07:39.911Z,68.60
2022-09-06T00:10:07.764Z,68.40
2022-09-06T00:12:35.378Z,68.10
2022-09-06T00:15:03.258Z,68.10
2022-09-06T00:17:31.206Z,68.20
2022-09-06T00:19:58.075Z,68.10
2022-09-06T00:22:25.463Z,68.00
2022-09-06T00:24:52.401Z,68.10
2022-09-06T00:27:19.363Z,68.20
2022-09-06T00:29:46.661Z,68.10
2022-09-06T00:32:14.079Z,68.10
2022-09-06T00:34:41.028Z,68.20
2022-09-06T00:37:08.101Z,68.30
2022-09-06T00:39:35.761Z,68.30
2022-09-06T00:42:03.122Z,68.40
2022-09-06T00:44:29.941Z,68.50
2022-09-06T00:46:56.753Z,68.40
2022-09-06T00:49:31.923Z,68.40
2022-09-06T00:52:06.272Z,68.00
2022-09-06T00:54:36.377Z,68.00
2022-09-06T00:57:03.998Z,68.10
2022-09-06T00:59:36.797Z,68.20
2022-09-06T01:02:05.629Z,68.50
2022-09-06T01:04:33.813Z,68.60
2022-09-06T01:07:16.447Z,68.60
2022-09-06T01:10:09.942Z,68.50
2022-09-06T01:13:06.134Z,68.50
2022-09-06T01:15:39.398Z,68.70
2022-09-06T01:18:27.622Z,68.80
2022-09-06T01:21:38.179Z,68.60
2022-09-06T01:24:42.581Z,68.50
2022-09-06T01:27:44.973Z,68.60
2022-09-06T01:30:14.635Z,68.60
2022-09-06T01:33:04.142Z,69.10
2022-09-06T01:35:57.814Z,69.80
2022-09-06T01:38:25.027Z,70.20
2022-09-06T01:40:52.653Z,70.40
2022-09-06T01:43:29.994Z,70.50
2022-09-06T01:46:07.683Z,70.10
2022-09-06T01:48:53.558Z,70.20
2022-09-06T01:51:56.305Z,70.20
2022-09-06T01:55:01.547Z,70.30
2022-09-06T01:58:07.256Z,70.50
2022-09-06T02:00:45.082Z,70.40
2022-09-06T02:03:36.029Z,70.20
2022-09-06T02:06:18.227Z,70.00
2022-09-06T02:08:49.719Z,70.10
2022-09-06T02:11:17.306Z,70.20
2022-09-06T02:13:54.153Z,70.40
2022-09-06T02:16:26.511Z,70.70
2022-09-06T02:19:13.630Z,70.90
2022-09-06T02:21:45.486Z,71.00
2022-09-06T02:24:21.465Z,71.10
2022-09-06T02:26:49.189Z,71.20
2022-09-06T02:29:18.317Z,71.10
2022-09-06T02:31:54.691Z,71.20
2022-09-06T02:34:22.523Z,71.20
2022-09-06T02:36:49.957Z,71.10
2022-09-06T02:39:19.650Z,71.20
2022-09-06T02:41:48.495Z,71.30
2022-09-06T02:44:16.299Z,71.40
2022-09-06T02:46:43.161Z,71.40
2022-09-06T02:49:10.501Z,71.50
2022-09-06T02:51:39.264Z,71.50
2022-09-06T02:54:07.638Z,71.50
2022-09-06T02:56:38.712Z,71.50
2022-09-06T02:59:05.754Z,71.60
2022-09-06T03:01:33.849Z,71.60
2022-09-06T03:04:00.989Z,71.60
2022-09-06T03:06:31.767Z,71.60
2022-09-06T03:09:00.175Z,71.60
2022-09-06T03:11:28.120Z,71.50
2022-09-06T03:13:54.984Z,71.50
2022-09-06T03:16:25.151Z,71.50
2022-09-06T03:18:52.440Z,71.50
2022-09-06T03:21:19.507Z,71.50
2022-09-06T03:23:46.455Z,71.70
2022-09-06T03:26:13.437Z,71.60
2022-09-06T03:28:40.639Z,71.50
2022-09-06T03:31:10.127Z,71.50
2022-09-06T03:33:37.383Z,71.40
2022-09-06T03:36:05.105Z,71.30
2022-09-06T03:38:31.909Z,71.30
2022-09-06T03:40:58.748Z,71.30
2022-09-06T03:43:28.098Z,71.40
2022-09-06T03:46:00.290Z,71.50
2022-09-06T03:48:29.351Z,71.50
2022-09-06T03:50:58.698Z,71.70
2022-09-06T03:53:27.351Z,71.80
2022-09-06T03:55:55.673Z,71.90
2022-09-06T03:58:23.957Z,71.90
2022-09-06T04:01:00.935Z,72.00
2022-09-06T04:03:27.845Z,72.00
2022-09-06T04:05:54.895Z,72.10
2022-09-06T04:08:21.747Z,72.10
2022-09-06T04:10:55.001Z,72.20
2022-09-06T04:13:23.228Z,72.30
2022-09-06T04:15:50.961Z,72.30
2022-09-06T04:18:18.141Z,72.40
2022-09-06T04:20:47.888Z,72.50
2022-09-06T04:23:15.162Z,72.60
2022-09-06T04:25:48.842Z,72.40
2022-09-06T04:28:18.284Z,72.30
2022-09-06T04:30:51.546Z,72.30
2022-09-06T04:33:18.565Z,72.50
2022-09-06T04:35:49.992Z,72.60
2022-09-06T04:38:17.679Z,72.60
2022-09-06T04:40:44.545Z,72.80
2022-09-06T04:43:11.699Z,72.80
2022-09-06T04:45:38.800Z,72.60
2022-09-06T04:48:05.886Z,72.60
2022-09-06T04:50:32.854Z,72.80
2022-09-06T04:53:07.866Z,72.80
2022-09-06T04:55:35.377Z,72.70
2022-09-06T04:58:03.430Z,72.40
2022-09-06T05:00:32.079Z,72.40
2022-09-06T05:02:59.150Z,72.40
2022-09-06T05:05:26.038Z,72.60
2022-09-06T05:07:54.249Z,72.80
2022-09-06T05:10:22.614Z,73.00
2022-09-06T05:12:51.986Z,73.30
2022-09-06T05:15:19.760Z,73.30
2022-09-06T05:17:46.855Z,73.30
2022-09-06T05:20:13.998Z,73.40
2022-09-06T05:22:41.425Z,73.50
2022-09-06T05:25:09.608Z,73.70
2022-09-06T05:27:39.835Z,73.80
2022-09-06T05:30:07.104Z,74.00
2022-09-06T05:32:34.016Z,74.00
2022-09-06T05:35:00.864Z,73.90
2022-09-06T05:37:27.668Z,74.00
2022-09-06T05:39:54.632Z,73.90
2022-09-06T05:42:21.480Z,73.90
2022-09-06T05:44:48.340Z,73.90
2022-09-06T05:47:15.212Z,73.90
2022-09-06T05:49:42.050Z,73.80
2022-09-06T05:52:08.976Z,73.70
2022-09-06T05:54:35.825Z,73.50
2022-09-06T05:57:02.769Z,73.40
2022-09-06T05:59:29.679Z,73.30
2022-09-06T06:01:56.650Z,73.20
2022-09-06T06:04:23.515Z,73.30
2022-09-06T06:06:50.589Z,73.20
2022-09-06T06:09:18.884Z,73.30
2022-09-06T06:11:45.778Z,73.40
2022-09-06T06:14:12.790Z,73.40
2022-09-06T06:16:39.749Z,73.40
2022-09-06T06:19:06.721Z,73.50
2022-09-06T06:21:34.489Z,73.60
2022-09-06T06:24:03.958Z,73.60
2022-09-06T06:26:33.334Z,73.60
2022-09-06T06:29:03.657Z,73.50
2022-09-06T06:31:32.638Z,73.30
2022-09-06T06:34:03.657Z,72.90
2022-09-06T06:36:33.957Z,72.80
2022-09-06T06:39:02.137Z,72.50
2022-09-06T06:41:31.796Z,72.30
2022-09-06T06:44:00.517Z,72.20
2022-09-06T06:46:29.730Z,71.80
2022-09-06T06:48:56.855Z,71.70
2022-09-06T06:51:29.441Z,71.50
2022-09-06T06:53:59.996Z,71.30
2022-09-06T06:56:33.459Z,71.20
2022-09-06T06:59:02.235Z,70.70
2022-09-06T07:01:31.151Z,70.40
2022-09-06T07:03:58.368Z,70.20
2022-09-06T07:09:12.084Z,69.80
2022-09-06T07:11:39.205Z,69.70
2022-09-06T07:14:06.222Z,69.60
2022-09-06T07:16:33.135Z,69.40
2022-09-06T07:19:00.224Z,69.20
2022-09-06T07:26:30.446Z,68.70
2022-09-06T07:29:00.205Z,68.50
2022-09-06T07:34:16.013Z,68.00
2022-09-06T07:36:42.934Z,67.80
2022-09-06T07:39:09.844Z,67.50
2022-09-06T07:41:36.768Z,67.10
2022-09-06T07:44:03.590Z,66.80
2022-09-06T07:46:30.539Z,66.60
2022-09-06T07:48:57.528Z,66.50
2022-09-06T07:51:24.466Z,65.80
2022-09-06T07:54:12.852Z,65.30
2022-09-06T07:56:42.453Z,64.90
2022-09-06T07:59:09.445Z,64.80
2022-09-06T08:01:40.505Z,64.40
2022-09-06T08:04:17.835Z,64.00
2022-09-06T08:09:37.636Z,63.30
2022-09-06T08:12:07.401Z,63.30
2022-09-06T08:14:35.135Z,63.00
2022-09-06T08:17:02.699Z,62.70
2022-09-06T08:19:29.505Z,62.20
2022-09-06T08:21:56.422Z,61.80
2022-09-06T08:24:23.479Z,61.40
2022-09-06T08:26:50.349Z,61.10
2022-09-06T08:29:17.523Z,60.80
2022-09-06T08:31:45.031Z,60.80
2022-09-06T08:34:15.289Z,60.90
2022-09-06T08:36:42.862Z,60.80
2022-09-06T08:39:10.533Z,59.90
2022-09-06T08:41:40.094Z,58.90
2022-09-06T08:47:19.890Z,58.80
2022-09-06T08:50:00.913Z,57.90
2022-09-06T08:52:49.480Z,57.60
2022-09-06T08:55:49.499Z,57.30
2022-09-06T08:58:33.321Z,56.90
2022-09-06T09:01:10.661Z,56.80
2022-09-06T09:03:39.751Z,56.80
2022-09-06T09:06:10.205Z,56.00
2022-09-06T09:08:37.011Z,56.10
2022-09-06T09:11:07.291Z,55.70
2022-09-06T09:13:56.330Z,55.20
2022-09-06T09:16:24.057Z,54.60
2022-09-06T09:18:57.193Z,54.20
2022-09-06T09:21:30.400Z,53.30
2022-09-06T09:24:02.590Z,53.30
2022-09-06T09:26:37.404Z,53.10
2022-09-06T09:29:09.373Z,52.60
2022-09-06T09:31:53.524Z,52.70
2022-09-06T09:34:36.125Z,52.90
2022-09-06T09:40:28.258Z,52.50
2022-09-06T09:43:08.518Z,52.80
2022-09-06T09:45:35.368Z,52.70
2022-09-06T09:48:29.521Z,52.30
2022-09-06T09:50:56.469Z,52.30
2022-09-06T09:53:24.308Z,52.20
2022-09-06T09:55:58.729Z,52.10
2022-09-06T09:58:33.440Z,51.60
2022-09-06T10:01:11.098Z,51.50
2022-09-06T10:09:33.688Z,51.50
2022-09-06T10:12:01.669Z,51.20
2022-09-06T10:14:49.557Z,51.30
2022-09-06T10:17:26.607Z,50.90
2022-09-06T10:19:54.032Z,50.60
2022-09-06T10:22:30.029Z,49.50
2022-09-06T10:25:15.053Z,49.30
2022-09-06T10:28:10.885Z,49.30
2022-09-06T10:31:16.617Z,49.10
2022-09-06T10:33:49.556Z,49.00
2022-09-06T10:36:29.848Z,49.30
2022-09-06T10:39:03.967Z,49.60
2022-09-06T10:41:46.817Z,50.20
2022-09-06T10:44:32.169Z,50.20
2022-09-06T10:47:10.558Z,49.90
2022-09-06T10:49:42.926Z,49.70
2022-09-06T10:52:15.256Z,50.30
2022-09-06T10:54:42.257Z,49.70
2022-09-06T11:00:14.372Z,48.50
2022-09-06T11:06:11.434Z,48.20
2022-09-06T11:11:20.811Z,48.30
2022-09-06T11:13:47.846Z,48.50
2022-09-06T11:16:29.502Z,49.00
2022-09-06T11:19:04.816Z,49.00
2022-09-06T11:21:49.540Z,49.30
2022-09-06T11:24:22.768Z,49.30
2022-09-06T11:27:06.242Z,49.00
2022-09-06T11:29:34.831Z,49.30
2022-09-06T11:32:20.341Z,48.50
2022-09-06T11:34:59.208Z,48.30
2022-09-06T11:37:35.293Z,48.80
2022-09-06T11:42:52.232Z,49.10
2022-09-06T11:45:39.258Z,49.20
2022-09-06T11:48:24.227Z,49.40
2022-09-06T11:50:54.212Z,49.10
2022-09-06T11:53:29.909Z,49.20
2022-09-06T11:56:02.703Z,49.20
2022-09-06T11:58:53.807Z,49.30
2022-09-06T12:01:20.828Z,49.60
2022-09-06T12:06:43.707Z,49.70
2022-09-06T12:09:33.980Z,49.20
2022-09-06T12:12:01.547Z,49.00
2022-09-06T12:14:40.275Z,49.30
2022-09-06T12:17:18.267Z,48.50
2022-09-06T12:19:49.626Z,48.40
2022-09-06T12:22:35.955Z,48.20
2022-09-06T12:25:40.631Z,48.10
2022-09-06T12:28:25.887Z,47.00
2022-09-06T12:30:55.765Z,46.90
2022-09-06T12:33:39.312Z,47.10
2022-09-06T12:36:22.605Z,46.70
2022-09-06T12:39:01.509Z,46.90
2022-09-06T12:41:32.232Z,46.80
2022-09-06T12:44:03.513Z,46.50
2022-09-06T12:46:32.261Z,46.50
2022-09-06T12:49:08.077Z,46.00
2022-09-06T12:51:36.686Z,45.80
2022-09-06T12:54:15.352Z,45.50
2022-09-06T12:56:42.249Z,45.00
2022-09-06T12:59:21.058Z,45.30
2022-09-06T13:02:08.387Z,44.70
2022-09-06T13:05:01.234Z,44.20
2022-09-06T13:07:29.503Z,44.60
2022-09-06T13:09:58.052Z,44.30
2022-09-06T13:12:48.970Z,44.50
2022-09-06T13:15:25.157Z,44.10
2022-09-06T13:17:54.156Z,44.30
2022-09-06T13:20:26.462Z,44.30
2022-09-06T13:23:04.947Z,44.60
2022-09-06T13:25:31.770Z,43.80
2022-09-06T13:27:59.070Z,43.80
2022-09-06T13:30:30.270Z,43.40
2022-09-06T13:32:57.211Z,43.40
2022-09-06T13:35:26.464Z,42.70
2022-09-06T13:37:53.465Z,42.80
2022-09-06T13:43:33.452Z,42.80
2022-09-06T13:46:11.695Z,43.00
2022-09-06T13:48:44.554Z,43.00
2022-09-06T13:51:12.144Z,43.00
2022-09-06T13:53:39.131Z,42.20
2022-09-06T13:56:08.489Z,42.30
2022-09-06T13:58:36.372Z,41.90
2022-09-06T14:01:08.608Z,41.80
2022-09-06T14:03:37.885Z,41.40
2022-09-06T14:06:04.798Z,41.30
2022-09-06T14:08:49.676Z,41.00
2022-09-06T14:11:22.392Z,41.40
2022-09-06T14:13:49.696Z,41.70
2022-09-06T14:16:16.569Z,41.70
2022-09-06T14:18:43.968Z,42.10
2022-09-06T14:21:11.010Z,42.10
2022-09-06T14:23:37.897Z,41.90
2022-09-06T14:26:05.537Z,41.70
2022-09-06T14:28:34.102Z,41.80
2022-09-06T14:31:28.328Z,42.20
2022-09-06T14:33:57.139Z,42.30
2022-09-06T14:36:26.612Z,41.90
2022-09-06T14:38:57.821Z,41.40
2022-09-06T14:41:25.435Z,41.10
2022-09-06T14:43:56.137Z,40.90
2022-09-06T14:46:25.011Z,40.50
2022-09-06T14:49:01.701Z,40.20
2022-09-06T14:51:30.326Z,40.20
2022-09-06T14:54:02.348Z,40.00
2022-09-06T14:56:30.436Z,39.80
2022-09-06T14:58:59.777Z,39.50
2022-09-06T15:01:37.137Z,39.60
2022-09-06T15:04:07.913Z,39.20
2022-09-06T15:06:36.898Z,39.40
2022-09-06T15:09:07.333Z,39.50
2022-09-06T15:11:46.578Z,38.70
2022-09-06T15:14:17.194Z,38.50
2022-09-06T15:16:45.863Z,38.50
2022-09-06T15:19:14.519Z,38.80
2022-09-06T15:21:42.891Z,38.80
2022-09-06T15:24:12.230Z,38.80
2022-09-06T15:26:43.729Z,38.90
2022-09-06T15:29:12.744Z,39.10
2022-09-06T15:31:41.655Z,39.20
2022-09-06T15:34:09.928Z,38.70
2022-09-06T15:36:38.069Z,38.40
2022-09-06T15:39:06.021Z,37.90
2022-09-06T15:41:37.557Z,37.60
2022-09-06T15:44:10.558Z,37.80
2022-09-06T15:46:50.437Z,38.10
2022-09-06T15:49:27.524Z,38.50
2022-09-06T15:52:00.896Z,38.30
2022-09-06T15:54:47.934Z,37.80
2022-09-06T15:57:16.308Z,37.80
2022-09-06T15:59:44.093Z,38.00
2022-09-06T16:02:11.798Z,38.40
2022-09-06T16:04:39.090Z,38.60
2022-09-06T16:07:06.898Z,39.10
2022-09-06T16:09:34.041Z,39.50
2022-09-06T16:12:01.157Z,39.50
2022-09-06T16:14:29.011Z,39.50
2022-09-06T16:16:58.666Z,39.30
2022-09-06T16:19:28.533Z,39.50
2022-09-06T16:21:55.974Z,39.60
2022-09-06T16:24:23.524Z,39.80
2022-09-06T16:26:50.836Z,40.00
2022-09-06T16:29:19.238Z,40.10
2022-09-06T16:31:47.071Z,40.10
2022-09-06T16:34:17.929Z,40.00
2022-09-06T16:36:45.078Z,40.20
2022-09-06T16:39:14.831Z,40.40
2022-09-06T16:41:47.097Z,40.70
2022-09-06T16:44:18.958Z,40.80
2022-09-06T16:46:48.977Z,40.70
2022-09-06T16:49:17.510Z,40.70
2022-09-06T16:51:48.153Z,40.90
2022-09-06T16:54:16.652Z,41.00
2022-09-06T16:56:44.869Z,41.00
2022-09-06T16:59:19.443Z,41.10
2022-09-06T17:01:47.441Z,41.30
2022-09-06T17:04:19.086Z,41.50
2022-09-06T17:07:03.601Z,41.60
2022-09-06T17:09:34.783Z,41.90
2022-09-06T17:12:03.519Z,41.90
2022-09-06T17:14:31.328Z,42.00
2022-09-06T17:17:07.593Z,42.00
2022-09-06T17:19:40.090Z,42.20
2022-09-06T17:22:15.099Z,42.50
2022-09-06T17:24:45.084Z,42.90
2022-09-06T17:27:22.805Z,43.00
2022-09-06T17:29:50.389Z,42.80
2022-09-06T17:32:17.598Z,42.90
2022-09-06T17:34:44.585Z,43.00
2022-09-06T17:37:20.268Z,42.90
2022-09-06T17:39:56.023Z,42.90
2022-09-06T17:42:26.200Z,42.90
2022-09-06T17:44:54.232Z,43.00
2022-09-06T17:47:24.313Z,43.60
2022-09-06T17:50:06.998Z,43.90
2022-09-06T17:52:35.595Z,44.30
2022-09-06T17:55:07.627Z,44.50
2022-09-06T17:57:37.639Z,45.30
2022-09-06T18:00:06.001Z,45.80
2022-09-06T18:02:43.801Z,46.10
2022-09-06T18:05:14.663Z,46.30
2022-09-06T18:07:43.421Z,46.50
2022-09-06T18:10:17.761Z,46.50
2022-09-06T18:12:48.216Z,46.30
2022-09-06T18:15:15.685Z,46.10
2022-09-06T18:17:42.955Z,45.90
2022-09-06T18:20:10.531Z,45.60
2022-09-06T18:22:39.852Z,45.50
2022-09-06T18:25:07.658Z,45.20
2022-09-06T18:27:34.618Z,45.00
2022-09-06T18:30:01.675Z,44.90
2022-09-06T18:32:28.733Z,44.90
2022-09-06T18:34:56.715Z,45.00
2022-09-06T18:37:23.915Z,45.10
2022-09-06T18:39:51.307Z,44.90
2022-09-06T18:42:18.876Z,44.90
2022-09-06T18:44:46.016Z,44.90
2022-09-06T18:47:13.854Z,45.00
2022-09-06T18:49:44.146Z,45.00
2022-09-06T18:52:11.678Z,45.20
2022-09-06T18:54:39.625Z,45.20
2022-09-06T18:57:07.184Z,45.30
2022-09-06T18:59:34.230Z,45.30
2022-09-06T19:02:01.430Z,45.30
2022-09-06T19:04:28.663Z,45.40
2022-09-06T19:06:58.434Z,45.50
2022-09-06T19:09:25.387Z,45.60
2022-09-06T19:11:53.144Z,45.80
2022-09-06T19:14:20.534Z,46.00
2022-09-06T19:16:48.726Z,46.10
2022-09-06T19:19:15.870Z,46.20
2022-09-06T19:21:44.108Z,46.20
2022-09-06T19:24:15.669Z,46.40
2022-09-06T19:26:46.621Z,46.50
2022-09-06T19:29:18.113Z,46.70
2022-09-06T19:31:46.221Z,46.80
2022-09-06T19:34:39.062Z,46.90
2022-09-06T19:37:06.480Z,47.00
2022-09-06T19:39:37.176Z,47.20
2022-09-06T19:42:06.942Z,47.30
2022-09-06T19:44:33.879Z,47.40
2022-09-06T19:47:00.870Z,47.60
2022-09-06T19:49:27.972Z,47.70
2022-09-06T19:51:54.862Z,47.90
2022-09-06T19:54:21.842Z,48.10
2022-09-06T19:56:51.168Z,48.30
2022-09-06T19:59:18.352Z,48.60
2022-09-06T20:01:46.753Z,48.50
2022-09-06T20:04:14.445Z,48.60
2022-09-06T20:09:26.107Z,48.60
2022-09-06T20:11:53.293Z,48.60
2022-09-06T20:14:21.361Z,48.60
2022-09-06T20:16:48.308Z,48.50
2022-09-06T20:19:16.374Z,48.30
2022-09-06T20:21:43.414Z,48.40
2022-09-06T20:24:10.680Z,48.30
2022-09-06T20:26:37.827Z,48.40
2022-09-06T20:29:05.095Z,48.30
2022-09-06T20:31:33.381Z,48.50
2022-09-06T20:34:02.183Z,48.50
2022-09-06T20:36:30.134Z,48.60
2022-09-06T20:38:57.189Z,49.00
2022-09-06T20:41:25.755Z,49.30
2022-09-06T20:43:54.962Z,49.70
2022-09-06T20:46:24.484Z,50.00
2022-09-06T20:48:52.288Z,50.50
2022-09-06T20:51:21.541Z,50.80
2022-09-06T20:53:53.455Z,51.20
2022-09-06T20:56:24.203Z,51.70
2022-09-06T20:58:54.008Z,52.00
2022-09-06T21:01:23.886Z,52.20
2022-09-06T21:03:53.553Z,52.50
2022-09-06T21:06:21.422Z,52.70
2022-09-06T21:08:49.429Z,52.90
2022-09-06T21:11:17.115Z,53.20
2022-09-06T21:13:44.046Z,53.30
2022-09-06T21:16:11.191Z,53.50
2022-09-06T21:18:38.092Z,53.70
2022-09-06T21:21:08.625Z,53.70
2022-09-06T21:23:37.842Z,54.00
2022-09-06T21:26:10.494Z,54.10
2022-09-06T21:28:39.882Z,54.20
2022-09-06T21:31:08.525Z,54.20
2022-09-06T21:33:44.234Z,54.50
2022-09-06T21:36:13.715Z,54.80
2022-09-06T21:38:42.889Z,55.10
2022-09-06T21:41:10.814Z,55.40
2022-09-06T21:43:37.747Z,55.60
2022-09-06T21:46:07.706Z,56.00
2022-09-06T21:48:39.199Z,56.50
2022-09-06T21:51:13.033Z,57.40
2022-09-06T21:53:40.435Z,58.10
2022-09-06T21:56:07.363Z,58.70
2022-09-06T21:58:34.348Z,59.00
2022-09-06T22:01:02.242Z,59.90
2022-09-06T22:03:35.174Z,61.20
2022-09-06T22:06:29.341Z,62.40
2022-09-06T22:08:57.938Z,62.80
2022-09-06T22:11:29.114Z,64.40
2022-09-06T22:14:04.171Z,68.50
2022-09-06T22:16:33.089Z,71.20
2022-09-06T22:19:00.078Z,73.30
2022-09-06T22:21:27.284Z,74.40
2022-09-06T22:24:00.881Z,75.70
2022-09-06T22:26:30.201Z,76.90
2022-09-06T22:29:02.247Z,78.00
2022-09-06T22:31:31.438Z,78.50
2022-09-06T22:33:58.940Z,79.10
2022-09-06T22:36:26.907Z,79.50
2022-09-06T22:38:57.379Z,79.40
2022-09-06T22:41:27.131Z,79.70
2022-09-06T22:43:54.525Z,80.10
2022-09-06T22:46:21.549Z,79.80
2022-09-06T22:48:49.289Z,80.30
2022-09-06T22:51:16.434Z,80.40
2022-09-06T22:53:44.241Z,81.10
2022-09-06T22:56:11.208Z,81.40
2022-09-06T22:58:38.369Z,81.40
2022-09-06T23:01:10.858Z,81.70
2022-09-06T23:03:38.204Z,81.30
2022-09-06T23:06:05.713Z,81.50
2022-09-06T23:08:35.331Z,81.60
2022-09-06T23:11:07.417Z,81.10
2022-09-06T23:13:35.008Z,80.80
2022-09-06T23:16:04.320Z,81.10
2022-09-06T23:18:31.301Z,81.10
2022-09-06T23:21:11.043Z,80.70
2022-09-06T23:23:38.555Z,80.70
2022-09-06T23:26:10.218Z,80.40
2022-09-06T23:28:38.320Z,80.00
2022-09-06T23:31:07.315Z,79.80
2022-09-06T23:33:36.399Z,80.10
2022-09-06T23:36:09.132Z,80.50
2022-09-06T23:38:37.872Z,80.60
2022-09-06T23:41:05.723Z,81.20
2022-09-06T23:43:33.149Z,81.10
2022-09-06T23:46:00.376Z,81.40
2022-09-06T23:48:27.474Z,81.70
2022-09-06T23:50:54.473Z,81.30
2022-09-06T23:53:21.586Z,81.50
2022-09-06T23:55:48.661Z,81.50
2022-09-06T23:58:15.919Z,81.60
